sensor_id;sensor_type;location;lat;lon;timestamp;P1;durP1;ratioP1;P2;durP2;ratioP2
20443;SDS011;10381;53.730;10.010;2023-04-23T00:00:09;23.77;;;21.35;;
20443;SDS011;10381;53.730;10.010;2023-04-23T00:04:15;26.00;;;22.88;;
20443;SDS011;10381;53.730;10.010;2023-04-23T00:08:17;25.00;;;21.70;;
20443;SDS011;10381;53.730;10.010;2023-04-23T00:12:18;28.67;;;23.65;;
20443;SDS011;10381;53.730;10.010;2023-04-23T00:16:20;30.00;;;22.63;;
20443;SDS011;10381;53.730;10.010;2023-04-23T00:20:20;27.02;;;22.30;;
20443;SDS011;10381;53.730;10.010;2023-04-23T00:24:21;31.50;;;21.30;;
20443;SDS011;10381;53.730;10.010;2023-04-23T00:28:22;25.50;;;21.37;;
20443;SDS011;10381;53.730;10.010;2023-04-23T00:32:22;27.55;;;21.25;;
20443;SDS011;10381;53.730;10.010;2023-04-23T00:36:22;27.93;;;21.47;;
20443;SDS011;10381;53.730;10.010;2023-04-23T00:40:23;30.33;;;22.33;;
20443;SDS011;10381;53.730;10.010;2023-04-23T00:44:23;28.23;;;23.02;;
20443;SDS011;10381;53.730;10.010;2023-04-23T00:48:23;35.83;;;26.13;;
20443;SDS011;10381;53.730;10.010;2023-04-23T00:52:25;78.47;;;70.78;;
20443;SDS011;10381;53.730;10.010;2023-04-23T00:56:25;122.55;;;111.25;;
20443;SDS011;10381;53.730;10.010;2023-04-23T01:00:26;136.82;;;124.00;;
20443;SDS011;10381;53.730;10.010;2023-04-23T01:04:27;148.55;;;134.30;;
20443;SDS011;10381;53.730;10.010;2023-04-23T01:08:30;159.52;;;144.57;;
20443;SDS011;10381;53.730;10.010;2023-04-23T01:12:33;161.40;;;146.00;;
20443;SDS011;10381;53.730;10.010;2023-04-23T01:16:34;161.82;;;146.55;;
20443;SDS011;10381;53.730;10.010;2023-04-23T01:20:35;170.00;;;153.93;;
20443;SDS011;10381;53.730;10.010;2023-04-23T01:24:36;193.00;;;174.73;;
20443;SDS011;10381;53.730;10.010;2023-04-23T01:28:37;209.10;;;189.02;;
20443;SDS011;10381;53.730;10.010;2023-04-23T01:32:38;203.77;;;184.32;;
20443;SDS011;10381;53.730;10.010;2023-04-23T01:36:39;207.43;;;186.32;;
20443;SDS011;10381;53.730;10.010;2023-04-23T01:40:40;202.15;;;182.90;;
20443;SDS011;10381;53.730;10.010;2023-04-23T01:44:41;203.82;;;183.35;;
20443;SDS011;10381;53.730;10.010;2023-04-23T01:48:41;210.48;;;190.15;;
20443;SDS011;10381;53.730;10.010;2023-04-23T01:52:42;216.45;;;195.45;;
20443;SDS011;10381;53.730;10.010;2023-04-23T01:56:43;235.10;;;211.55;;
20443;SDS011;10381;53.730;10.010;2023-04-23T02:00:44;344.70;;;307.65;;
20443;SDS011;10381;53.730;10.010;2023-04-23T02:04:44;357.20;;;319.60;;
20443;SDS011;10381;53.730;10.010;2023-04-23T02:08:46;347.35;;;309.40;;
20443;SDS011;10381;53.730;10.010;2023-04-23T02:12:47;344.70;;;307.47;;
20443;SDS011;10381;53.730;10.010;2023-04-23T02:16:47;360.95;;;322.70;;
20443;SDS011;10381;53.730;10.010;2023-04-23T02:20:48;337.13;;;300.15;;
20443;SDS011;10381;53.730;10.010;2023-04-23T02:24:48;325.77;;;290.55;;
20443;SDS011;10381;53.730;10.010;2023-04-23T02:28:49;299.00;;;266.33;;
20443;SDS011;10381;53.730;10.010;2023-04-23T02:32:50;313.05;;;278.50;;
20443;SDS011;10381;53.730;10.010;2023-04-23T02:36:51;304.70;;;272.02;;
20443;SDS011;10381;53.730;10.010;2023-04-23T02:40:51;316.10;;;281.13;;
20443;SDS011;10381;53.730;10.010;2023-04-23T02:44:51;303.90;;;270.80;;
20443;SDS011;10381;53.730;10.010;2023-04-23T02:48:52;299.50;;;266.63;;
20443;SDS011;10381;53.730;10.010;2023-04-23T02:52:52;292.03;;;260.67;;
20443;SDS011;10381;53.730;10.010;2023-04-23T02:56:52;311.90;;;268.97;;
20443;SDS011;10381;53.730;10.010;2023-04-23T03:00:53;282.17;;;239.67;;
20443;SDS011;10381;53.730;10.010;2023-04-23T03:04:53;308.85;;;253.77;;
20443;SDS011;10381;53.730;10.010;2023-04-23T03:08:54;290.13;;;255.43;;
20443;SDS011;10381;53.730;10.010;2023-04-23T03:12:55;293.55;;;261.52;;
20443;SDS011;10381;53.730;10.010;2023-04-23T03:16:55;291.00;;;259.08;;
20443;SDS011;10381;53.730;10.010;2023-04-23T03:20:55;287.27;;;255.57;;
20443;SDS011;10381;53.730;10.010;2023-04-23T03:24:56;281.80;;;252.07;;
20443;SDS011;10381;53.730;10.010;2023-04-23T03:28:56;272.10;;;242.53;;
20443;SDS011;10381;53.730;10.010;2023-04-23T03:32:56;274.53;;;245.37;;
20443;SDS011;10381;53.730;10.010;2023-04-23T03:36:57;270.08;;;242.38;;
20443;SDS011;10381;53.730;10.010;2023-04-23T03:40:57;260.43;;;234.40;;
20443;SDS011;10381;53.730;10.010;2023-04-23T03:44:57;265.67;;;238.98;;
20443;SDS011;10381;53.730;10.010;2023-04-23T03:48:58;267.38;;;240.68;;
20443;SDS011;10381;53.730;10.010;2023-04-23T03:52:59;258.87;;;233.33;;
20443;SDS011;10381;53.730;10.010;2023-04-23T03:56:59;272.13;;;245.75;;
20443;SDS011;10381;53.730;10.010;2023-04-23T04:01:00;272.30;;;245.50;;
20443;SDS011;10381;53.730;10.010;2023-04-23T04:05:00;269.67;;;243.63;;
20443;SDS011;10381;53.730;10.010;2023-04-23T04:09:01;267.92;;;242.13;;
20443;SDS011;10381;53.730;10.010;2023-04-23T04:13:02;281.15;;;254.43;;
20443;SDS011;10381;53.730;10.010;2023-04-23T04:17:02;285.33;;;257.75;;
20443;SDS011;10381;53.730;10.010;2023-04-23T04:21:03;282.93;;;254.70;;
20443;SDS011;10381;53.730;10.010;2023-04-23T04:25:03;287.48;;;260.15;;
20443;SDS011;10381;53.730;10.010;2023-04-23T04:29:04;282.33;;;255.77;;
20443;SDS011;10381;53.730;10.010;2023-04-23T04:33:05;288.30;;;261.13;;
20443;SDS011;10381;53.730;10.010;2023-04-23T04:37:05;291.30;;;263.30;;
20443;SDS011;10381;53.730;10.010;2023-04-23T04:41:06;297.13;;;269.75;;
20443;SDS011;10381;53.730;10.010;2023-04-23T04:45:07;300.98;;;273.00;;
20443;SDS011;10381;53.730;10.010;2023-04-23T04:49:08;304.25;;;276.13;;
20443;SDS011;10381;53.730;10.010;2023-04-23T04:53:09;302.42;;;274.08;;
20443;SDS011;10381;53.730;10.010;2023-04-23T04:57:09;307.15;;;278.73;;
20443;SDS011;10381;53.730;10.010;2023-04-23T05:01:10;287.67;;;261.38;;
20443;SDS011;10381;53.730;10.010;2023-04-23T05:05:12;291.92;;;265.20;;
20443;SDS011;10381;53.730;10.010;2023-04-23T05:09:12;302.98;;;275.33;;
20443;SDS011;10381;53.730;10.010;2023-04-23T05:13:13;285.60;;;259.03;;
20443;SDS011;10381;53.730;10.010;2023-04-23T05:17:13;301.27;;;272.97;;
20443;SDS011;10381;53.730;10.010;2023-04-23T05:21:14;279.80;;;254.13;;
20443;SDS011;10381;53.730;10.010;2023-04-23T05:25:14;278.30;;;252.90;;
20443;SDS011;10381;53.730;10.010;2023-04-23T05:29:15;263.65;;;239.23;;
20443;SDS011;10381;53.730;10.010;2023-04-23T05:33:18;253.50;;;230.10;;
20443;SDS011;10381;53.730;10.010;2023-04-23T05:37:18;242.80;;;220.20;;
20443;SDS011;10381;53.730;10.010;2023-04-23T05:41:18;238.98;;;216.10;;
20443;SDS011;10381;53.730;10.010;2023-04-23T05:45:19;216.57;;;195.63;;
20443;SDS011;10381;53.730;10.010;2023-04-23T05:49:20;186.88;;;168.57;;
20443;SDS011;10381;53.730;10.010;2023-04-23T05:53:20;169.90;;;152.27;;
20443;SDS011;10381;53.730;10.010;2023-04-23T05:57:20;142.17;;;124.03;;
20443;SDS011;10381;53.730;10.010;2023-04-23T06:01:21;108.20;;;97.35;;
20443;SDS011;10381;53.730;10.010;2023-04-23T06:05:21;97.73;;;87.10;;
20443;SDS011;10381;53.730;10.010;2023-04-23T06:09:21;84.60;;;73.97;;
20443;SDS011;10381;53.730;10.010;2023-04-23T06:13:22;80.30;;;69.40;;
20443;SDS011;10381;53.730;10.010;2023-04-23T06:17:22;74.63;;;61.60;;
20443;SDS011;10381;53.730;10.010;2023-04-23T06:21:22;73.87;;;64.97;;
20443;SDS011;10381;53.730;10.010;2023-04-23T06:25:22;74.97;;;62.13;;
20443;SDS011;10381;53.730;10.010;2023-04-23T06:29:23;61.25;;;51.65;;
20443;SDS011;10381;53.730;10.010;2023-04-23T06:33:23;50.97;;;44.00;;
20443;SDS011;10381;53.730;10.010;2023-04-23T06:37:23;51.70;;;41.80;;
20443;SDS011;10381;53.730;10.010;2023-04-23T06:41:25;42.38;;;33.00;;
20443;SDS011;10381;53.730;10.010;2023-04-23T06:45:25;47.88;;;32.13;;
20443;SDS011;10381;53.730;10.010;2023-04-23T06:49:25;42.08;;;29.48;;
20443;SDS011;10381;53.730;10.010;2023-04-23T06:53:26;39.60;;;30.37;;
20443;SDS011;10381;53.730;10.010;2023-04-23T06:57:26;37.93;;;25.43;;
20443;SDS011;10381;53.730;10.010;2023-04-23T07:01:27;33.90;;;25.30;;
20443;SDS011;10381;53.730;10.010;2023-04-23T07:05:28;31.02;;;24.50;;
20443;SDS011;10381;53.730;10.010;2023-04-23T07:09:28;30.77;;;23.00;;
20443;SDS011;10381;53.730;10.010;2023-04-23T07:13:28;40.63;;;23.03;;
20443;SDS011;10381;53.730;10.010;2023-04-23T07:17:29;22.73;;;20.10;;
20443;SDS011;10381;53.730;10.010;2023-04-23T07:21:30;29.33;;;21.15;;
20443;SDS011;10381;53.730;10.010;2023-04-23T07:25:31;26.15;;;20.33;;
20443;SDS011;10381;53.730;10.010;2023-04-23T07:29:32;26.40;;;19.55;;
20443;SDS011;10381;53.730;10.010;2023-04-23T07:33:32;24.75;;;20.33;;
20443;SDS011;10381;53.730;10.010;2023-04-23T07:37:33;27.37;;;19.03;;
20443;SDS011;10381;53.730;10.010;2023-04-23T07:41:33;23.00;;;18.70;;
20443;SDS011;10381;53.730;10.010;2023-04-23T07:45:34;25.77;;;20.30;;
20443;SDS011;10381;53.730;10.010;2023-04-23T07:49:34;31.63;;;19.43;;
20443;SDS011;10381;53.730;10.010;2023-04-23T07:53:34;26.03;;;19.07;;
20443;SDS011;10381;53.730;10.010;2023-04-23T07:57:35;26.07;;;19.37;;
20443;SDS011;10381;53.730;10.010;2023-04-23T08:01:35;28.30;;;19.63;;
20443;SDS011;10381;53.730;10.010;2023-04-23T08:05:35;23.80;;;18.88;;
20443;SDS011;10381;53.730;10.010;2023-04-23T08:09:37;25.85;;;18.65;;
20443;SDS011;10381;53.730;10.010;2023-04-23T08:13:37;24.13;;;18.67;;
20443;SDS011;10381;53.730;10.010;2023-04-23T08:17:37;25.67;;;18.33;;
20443;SDS011;10381;53.730;10.010;2023-04-23T08:21:38;24.93;;;19.60;;
20443;SDS011;10381;53.730;10.010;2023-04-23T08:25:38;22.93;;;19.70;;
20443;SDS011;10381;53.730;10.010;2023-04-23T08:29:38;27.58;;;18.45;;
20443;SDS011;10381;53.730;10.010;2023-04-23T08:33:39;24.70;;;19.20;;
20443;SDS011;10381;53.730;10.010;2023-04-23T08:37:39;22.38;;;19.50;;
20443;SDS011;10381;53.730;10.010;2023-04-23T08:41:40;24.80;;;18.70;;
20443;SDS011;10381;53.730;10.010;2023-04-23T08:45:42;26.92;;;19.20;;
20443;SDS011;10381;53.730;10.010;2023-04-23T08:49:46;25.83;;;20.77;;
20443;SDS011;10381;53.730;10.010;2023-04-23T08:53:53;25.42;;;18.60;;
20443;SDS011;10381;53.730;10.010;2023-04-23T08:57:57;25.33;;;19.77;;
20443;SDS011;10381;53.730;10.010;2023-04-23T09:01:57;20.75;;;18.42;;
20443;SDS011;10381;53.730;10.010;2023-04-23T09:06:00;26.88;;;19.45;;
20443;SDS011;10381;53.730;10.010;2023-04-23T09:10:01;23.65;;;19.80;;
20443;SDS011;10381;53.730;10.010;2023-04-23T09:14:02;24.42;;;19.27;;
20443;SDS011;10381;53.730;10.010;2023-04-23T09:18:03;23.73;;;20.30;;
20443;SDS011;10381;53.730;10.010;2023-04-23T09:22:05;22.55;;;18.85;;
20443;SDS011;10381;53.730;10.010;2023-04-23T09:26:06;24.63;;;18.85;;
20443;SDS011;10381;53.730;10.010;2023-04-23T09:30:08;22.42;;;18.42;;
20443;SDS011;10381;53.730;10.010;2023-04-23T09:34:10;23.35;;;18.88;;
20443;SDS011;10381;53.730;10.010;2023-04-23T09:38:11;25.48;;;20.55;;
20443;SDS011;10381;53.730;10.010;2023-04-23T09:42:11;21.83;;;19.53;;
20443;SDS011;10381;53.730;10.010;2023-04-23T09:46:13;23.20;;;20.33;;
20443;SDS011;10381;53.730;10.010;2023-04-23T09:50:13;19.60;;;17.53;;
20443;SDS011;10381;53.730;10.010;2023-04-23T09:54:15;23.27;;;20.08;;
20443;SDS011;10381;53.730;10.010;2023-04-23T09:58:17;21.60;;;18.75;;
20443;SDS011;10381;53.730;10.010;2023-04-23T10:02:18;24.90;;;17.85;;
20443;SDS011;10381;53.730;10.010;2023-04-23T10:06:18;20.75;;;15.70;;
20443;SDS011;10381;53.730;10.010;2023-04-23T10:10:19;18.88;;;14.80;;
20443;SDS011;10381;53.730;10.010;2023-04-23T10:14:20;19.27;;;15.10;;
20443;SDS011;10381;53.730;10.010;2023-04-23T10:18:21;19.33;;;14.73;;
20443;SDS011;10381;53.730;10.010;2023-04-23T10:22:21;19.17;;;13.53;;
20443;SDS011;10381;53.730;10.010;2023-04-23T10:26:26;17.60;;;13.45;;
20443;SDS011;10381;53.730;10.010;2023-04-23T10:30:30;18.60;;;13.50;;
20443;SDS011;10381;53.730;10.010;2023-04-23T10:34:32;15.95;;;12.23;;
20443;SDS011;10381;53.730;10.010;2023-04-23T10:38:32;16.15;;;12.55;;
20443;SDS011;10381;53.730;10.010;2023-04-23T10:42:34;17.88;;;11.70;;
20443;SDS011;10381;53.730;10.010;2023-04-23T10:46:34;18.10;;;12.55;;
20443;SDS011;10381;53.730;10.010;2023-04-23T10:50:35;17.47;;;12.20;;
20443;SDS011;10381;53.730;10.010;2023-04-23T10:54:35;16.48;;;11.15;;
20443;SDS011;10381;53.730;10.010;2023-04-23T10:58:48;16.02;;;11.02;;
20443;SDS011;10381;53.730;10.010;2023-04-23T11:02:50;14.02;;;9.55;;
20443;SDS011;10381;53.730;10.010;2023-04-23T11:06:53;16.77;;;10.63;;
20443;SDS011;10381;53.730;10.010;2023-04-23T11:10:56;13.15;;;10.38;;
20443;SDS011;10381;53.730;10.010;2023-04-23T11:14:58;14.32;;;9.95;;
20443;SDS011;10381;53.730;10.010;2023-04-23T11:18:59;16.23;;;9.60;;
20443;SDS011;10381;53.730;10.010;2023-04-23T11:23:03;13.55;;;9.75;;
20443;SDS011;10381;53.730;10.010;2023-04-23T11:27:06;12.43;;;8.90;;
20443;SDS011;10381;53.730;10.010;2023-04-23T11:31:08;17.60;;;10.07;;
20443;SDS011;10381;53.730;10.010;2023-04-23T11:35:09;13.82;;;9.80;;
20443;SDS011;10381;53.730;10.010;2023-04-23T11:39:10;25.70;;;13.43;;
20443;SDS011;10381;53.730;10.010;2023-04-23T11:43:11;17.25;;;9.10;;
20443;SDS011;10381;53.730;10.010;2023-04-23T11:47:18;14.05;;;9.68;;
20443;SDS011;10381;53.730;10.010;2023-04-23T11:51:23;20.48;;;10.98;;
20443;SDS011;10381;53.730;10.010;2023-04-23T11:55:27;17.60;;;10.57;;
20443;SDS011;10381;53.730;10.010;2023-04-23T11:59:28;25.35;;;11.95;;
20443;SDS011;10381;53.730;10.010;2023-04-23T12:03:28;17.33;;;10.85;;
20443;SDS011;10381;53.730;10.010;2023-04-23T12:07:32;18.75;;;11.00;;
20443;SDS011;10381;53.730;10.010;2023-04-23T12:11:34;17.00;;;10.80;;
20443;SDS011;10381;53.730;10.010;2023-04-23T12:15:42;20.08;;;11.98;;
20443;SDS011;10381;53.730;10.010;2023-04-23T12:19:50;17.23;;;11.10;;
20443;SDS011;10381;53.730;10.010;2023-04-23T12:23:50;16.30;;;10.47;;
20443;SDS011;10381;53.730;10.010;2023-04-23T12:27:50;13.95;;;9.48;;
20443;SDS011;10381;53.730;10.010;2023-04-23T12:31:51;14.77;;;9.60;;
20443;SDS011;10381;53.730;10.010;2023-04-23T12:35:52;14.60;;;9.23;;
20443;SDS011;10381;53.730;10.010;2023-04-23T12:39:53;13.87;;;9.70;;
20443;SDS011;10381;53.730;10.010;2023-04-23T12:43:55;13.63;;;9.40;;
20443;SDS011;10381;53.730;10.010;2023-04-23T12:47:55;11.10;;;8.37;;
20443;SDS011;10381;53.730;10.010;2023-04-23T12:51:56;12.30;;;8.53;;
20443;SDS011;10381;53.730;10.010;2023-04-23T12:55:59;14.75;;;9.65;;
20443;SDS011;10381;53.730;10.010;2023-04-23T13:00:00;14.43;;;9.43;;
20443;SDS011;10381;53.730;10.010;2023-04-23T13:04:00;14.17;;;9.37;;
20443;SDS011;10381;53.730;10.010;2023-04-23T13:08:00;9.90;;;7.93;;
20443;SDS011;10381;53.730;10.010;2023-04-23T13:12:01;11.57;;;7.15;;
20443;SDS011;10381;53.730;10.010;2023-04-23T13:16:01;7.07;;;5.80;;
20443;SDS011;10381;53.730;10.010;2023-04-23T13:20:01;9.70;;;6.43;;
20443;SDS011;10381;53.730;10.010;2023-04-23T13:24:03;37.17;;;6.97;;
20443;SDS011;10381;53.730;10.010;2023-04-23T13:28:03;8.98;;;6.63;;
20443;SDS011;10381;53.730;10.010;2023-04-23T13:32:04;9.02;;;6.43;;
20443;SDS011;10381;53.730;10.010;2023-04-23T13:36:05;7.82;;;5.90;;
20443;SDS011;10381;53.730;10.010;2023-04-23T13:40:05;10.90;;;7.35;;
20443;SDS011;10381;53.730;10.010;2023-04-23T13:44:06;9.20;;;6.45;;
20443;SDS011;10381;53.730;10.010;2023-04-23T13:48:06;10.13;;;6.50;;
20443;SDS011;10381;53.730;10.010;2023-04-23T13:52:07;8.73;;;6.90;;
20443;SDS011;10381;53.730;10.010;2023-04-23T13:56:07;10.80;;;6.40;;
20443;SDS011;10381;53.730;10.010;2023-04-23T14:00:08;9.57;;;7.23;;
20443;SDS011;10381;53.730;10.010;2023-04-23T14:04:08;8.77;;;6.07;;
20443;SDS011;10381;53.730;10.010;2023-04-23T14:08:09;7.13;;;5.60;;
20443;SDS011;10381;53.730;10.010;2023-04-23T14:12:09;7.55;;;5.80;;
20443;SDS011;10381;53.730;10.010;2023-04-23T14:16:10;9.23;;;6.57;;
20443;SDS011;10381;53.730;10.010;2023-04-23T14:20:10;7.80;;;5.57;;
20443;SDS011;10381;53.730;10.010;2023-04-23T14:24:17;5.78;;;5.18;;
20443;SDS011;10381;53.730;10.010;2023-04-23T14:28:26;9.57;;;5.95;;
20443;SDS011;10381;53.730;10.010;2023-04-23T14:32:32;6.47;;;5.47;;
20443;SDS011;10381;53.730;10.010;2023-04-23T14:36:32;6.03;;;5.40;;
20443;SDS011;10381;53.730;10.010;2023-04-23T14:40:33;9.98;;;5.90;;
20443;SDS011;10381;53.730;10.010;2023-04-23T14:44:33;12.70;;;5.80;;
20443;SDS011;10381;53.730;10.010;2023-04-23T14:48:33;14.93;;;5.90;;
20443;SDS011;10381;53.730;10.010;2023-04-23T14:52:34;6.30;;;5.70;;
20443;SDS011;10381;53.730;10.010;2023-04-23T14:56:35;10.65;;;7.90;;
20443;SDS011;10381;53.730;10.010;2023-04-23T15:00:36;9.93;;;8.10;;
20443;SDS011;10381;53.730;10.010;2023-04-23T15:04:36;10.07;;;8.98;;
20443;SDS011;10381;53.730;10.010;2023-04-23T15:08:36;12.70;;;11.40;;
20443;SDS011;10381;53.730;10.010;2023-04-23T15:16:40;17.40;;;15.60;;
20443;SDS011;10381;53.730;10.010;2023-04-23T15:20:40;51.65;;;46.60;;
20443;SDS011;10381;53.730;10.010;2023-04-23T15:24:41;63.80;;;57.90;;
20443;SDS011;10381;53.730;10.010;2023-04-23T15:28:42;51.20;;;46.47;;
20443;SDS011;10381;53.730;10.010;2023-04-23T15:32:42;52.33;;;47.43;;
20443;SDS011;10381;53.730;10.010;2023-04-23T15:36:42;54.83;;;50.03;;
20443;SDS011;10381;53.730;10.010;2023-04-23T15:40:43;50.83;;;45.83;;
20443;SDS011;10381;53.730;10.010;2023-04-23T15:44:46;34.38;;;31.08;;
20443;SDS011;10381;53.730;10.010;2023-04-23T15:48:46;22.20;;;20.20;;
20443;SDS011;10381;53.730;10.010;2023-04-23T15:52:47;21.27;;;19.43;;
20443;SDS011;10381;53.730;10.010;2023-04-23T15:56:47;24.77;;;22.48;;
20443;SDS011;10381;53.730;10.010;2023-04-23T16:00:47;24.73;;;22.53;;
20443;SDS011;10381;53.730;10.010;2023-04-23T16:04:48;23.93;;;21.53;;
20443;SDS011;10381;53.730;10.010;2023-04-23T16:08:51;20.25;;;18.45;;
20443;SDS011;10381;53.730;10.010;2023-04-23T16:12:51;16.50;;;15.20;;
20443;SDS011;10381;53.730;10.010;2023-04-23T16:16:53;13.98;;;12.93;;
20443;SDS011;10381;53.730;10.010;2023-04-23T16:20:54;7.13;;;6.63;;
20443;SDS011;10381;53.730;10.010;2023-04-23T16:24:54;4.47;;;4.17;;
20443;SDS011;10381;53.730;10.010;2023-04-23T16:28:55;3.40;;;3.20;;
20443;SDS011;10381;53.730;10.010;2023-04-23T16:32:55;3.47;;;3.28;;
20443;SDS011;10381;53.730;10.010;2023-04-23T16:36:55;4.70;;;4.40;;
20443;SDS011;10381;53.730;10.010;2023-04-23T16:40:56;5.93;;;5.43;;
20443;SDS011;10381;53.730;10.010;2023-04-23T16:44:56;6.30;;;5.70;;
20443;SDS011;10381;53.730;10.010;2023-04-23T16:48:57;6.50;;;6.00;;
20443;SDS011;10381;53.730;10.010;2023-04-23T16:52:57;5.93;;;5.53;;
20443;SDS011;10381;53.730;10.010;2023-04-23T16:56:57;7.40;;;6.90;;
20443;SDS011;10381;53.730;10.010;2023-04-23T17:00:58;9.20;;;8.48;;
20443;SDS011;10381;53.730;10.010;2023-04-23T17:04:58;10.37;;;9.27;;
20443;SDS011;10381;53.730;10.010;2023-04-23T17:08:59;12.17;;;10.97;;
20443;SDS011;10381;53.730;10.010;2023-04-23T17:13:00;14.00;;;11.70;;
20443;SDS011;10381;53.730;10.010;2023-04-23T17:17:01;24.85;;;13.18;;
20443;SDS011;10381;53.730;10.010;2023-04-23T17:21:01;15.83;;;14.23;;
20443;SDS011;10381;53.730;10.010;2023-04-23T17:25:01;18.77;;;16.75;;
20443;SDS011;10381;53.730;10.010;2023-04-23T17:29:02;19.85;;;17.40;;
20443;SDS011;10381;53.730;10.010;2023-04-23T17:33:02;22.17;;;19.80;;
20443;SDS011;10381;53.730;10.010;2023-04-23T17:37:02;21.65;;;19.55;;
20443;SDS011;10381;53.730;10.010;2023-04-23T17:41:02;23.47;;;20.97;;
20443;SDS011;10381;53.730;10.010;2023-04-23T17:45:03;36.92;;;33.33;;
20443;SDS011;10381;53.730;10.010;2023-04-23T17:49:04;84.82;;;76.95;;
20443;SDS011;10381;53.730;10.010;2023-04-23T17:53:05;141.93;;;129.98;;
20443;SDS011;10381;53.730;10.010;2023-04-23T17:57:07;223.57;;;204.85;;
20443;SDS011;10381;53.730;10.010;2023-04-23T18:01:08;232.05;;;212.63;;
20443;SDS011;10381;53.730;10.010;2023-04-23T18:05:11;261.02;;;238.40;;
20443;SDS011;10381;53.730;10.010;2023-04-23T18:09:12;267.95;;;245.10;;
20443;SDS011;10381;53.730;10.010;2023-04-23T18:13:13;286.87;;;260.67;;
20443;SDS011;10381;53.730;10.010;2023-04-23T18:17:13;252.75;;;229.50;;
20443;SDS011;10381;53.730;10.010;2023-04-23T18:21:16;274.13;;;248.98;;
20443;SDS011;10381;53.730;10.010;2023-04-23T18:25:17;292.15;;;266.65;;
20443;SDS011;10381;53.730;10.010;2023-04-23T18:29:18;285.52;;;260.23;;
20443;SDS011;10381;53.730;10.010;2023-04-23T18:37:29;310.38;;;282.65;;
20443;SDS011;10381;53.730;10.010;2023-04-23T18:41:31;316.40;;;288.25;;
20443;SDS011;10381;53.730;10.010;2023-04-23T18:45:31;312.10;;;283.48;;
20443;SDS011;10381;53.730;10.010;2023-04-23T18:53:43;296.45;;;269.10;;
20443;SDS011;10381;53.730;10.010;2023-04-23T18:57:44;295.92;;;269.63;;
20443;SDS011;10381;53.730;10.010;2023-04-23T19:01:45;293.25;;;266.35;;
20443;SDS011;10381;53.730;10.010;2023-04-23T19:05:47;292.67;;;266.23;;
20443;SDS011;10381;53.730;10.010;2023-04-23T19:09:47;296.42;;;269.73;;
20443;SDS011;10381;53.730;10.010;2023-04-23T19:13:47;285.10;;;259.03;;
20443;SDS011;10381;53.730;10.010;2023-04-23T19:17:48;294.63;;;268.03;;
20443;SDS011;10381;53.730;10.010;2023-04-23T19:21:48;273.77;;;248.98;;
20443;SDS011;10381;53.730;10.010;2023-04-23T19:25:48;286.40;;;260.90;;
20443;SDS011;10381;53.730;10.010;2023-04-23T19:29:48;282.13;;;256.37;;
20443;SDS011;10381;53.730;10.010;2023-04-23T19:33:51;276.08;;;251.23;;
20443;SDS011;10381;53.730;10.010;2023-04-23T19:37:51;268.60;;;244.33;;
20443;SDS011;10381;53.730;10.010;2023-04-23T19:41:52;276.45;;;251.15;;
20443;SDS011;10381;53.730;10.010;2023-04-23T19:45:52;266.53;;;242.70;;
20443;SDS011;10381;53.730;10.010;2023-04-23T19:49:52;265.52;;;242.05;;
20443;SDS011;10381;53.730;10.010;2023-04-23T19:53:52;272.93;;;249.17;;
20443;SDS011;10381;53.730;10.010;2023-04-23T19:57:55;258.75;;;235.55;;
20443;SDS011;10381;53.730;10.010;2023-04-23T20:01:55;259.85;;;236.27;;
20443;SDS011;10381;53.730;10.010;2023-04-23T20:05:56;262.60;;;238.77;;
20443;SDS011;10381;53.730;10.010;2023-04-23T20:09:57;266.48;;;242.45;;
20443;SDS011;10381;53.730;10.010;2023-04-23T20:13:57;275.67;;;250.53;;
20443;SDS011;10381;53.730;10.010;2023-04-23T20:17:58;278.40;;;253.37;;
20443;SDS011;10381;53.730;10.010;2023-04-23T20:21:59;274.67;;;249.75;;
20443;SDS011;10381;53.730;10.010;2023-04-23T20:25:59;285.80;;;259.55;;
20443;SDS011;10381;53.730;10.010;2023-04-23T20:30:00;279.07;;;253.83;;
20443;SDS011;10381;53.730;10.010;2023-04-23T20:34:02;279.05;;;253.95;;
20443;SDS011;10381;53.730;10.010;2023-04-23T20:38:03;286.08;;;260.55;;
20443;SDS011;10381;53.730;10.010;2023-04-23T20:42:03;292.65;;;266.70;;
20443;SDS011;10381;53.730;10.010;2023-04-23T20:46:05;299.92;;;272.88;;
20443;SDS011;10381;53.730;10.010;2023-04-23T20:50:09;301.02;;;274.17;;
20443;SDS011;10381;53.730;10.010;2023-04-23T20:54:09;310.98;;;283.13;;
20443;SDS011;10381;53.730;10.010;2023-04-23T20:58:10;291.50;;;265.83;;
20443;SDS011;10381;53.730;10.010;2023-04-23T21:02:10;273.83;;;249.73;;
20443;SDS011;10381;53.730;10.010;2023-04-23T21:06:11;254.82;;;232.30;;
20443;SDS011;10381;53.730;10.010;2023-04-23T21:10:12;225.70;;;205.50;;
20443;SDS011;10381;53.730;10.010;2023-04-23T21:14:12;187.77;;;170.67;;
20443;SDS011;10381;53.730;10.010;2023-04-23T21:18:12;161.37;;;146.60;;
20443;SDS011;10381;53.730;10.010;2023-04-23T21:22:13;141.30;;;128.13;;
20443;SDS011;10381;53.730;10.010;2023-04-23T21:26:13;110.90;;;100.47;;
20443;SDS011;10381;53.730;10.010;2023-04-23T21:30:21;89.40;;;80.53;;
20443;SDS011;10381;53.730;10.010;2023-04-23T21:34:25;70.72;;;63.58;;
20443;SDS011;10381;53.730;10.010;2023-04-23T21:38:28;64.18;;;57.58;;
20443;SDS011;10381;53.730;10.010;2023-04-23T21:42:28;60.72;;;54.70;;
20443;SDS011;10381;53.730;10.010;2023-04-23T21:46:29;55.37;;;49.70;;
20443;SDS011;10381;53.730;10.010;2023-04-23T21:50:31;52.83;;;47.55;;
20443;SDS011;10381;53.730;10.010;2023-04-23T21:54:31;49.85;;;45.03;;
20443;SDS011;10381;53.730;10.010;2023-04-23T21:58:32;46.00;;;41.37;;
20443;SDS011;10381;53.730;10.010;2023-04-23T22:02:34;44.78;;;39.92;;
20443;SDS011;10381;53.730;10.010;2023-04-23T22:06:34;39.50;;;35.30;;
20443;SDS011;10381;53.730;10.010;2023-04-23T22:10:34;39.47;;;34.80;;
20443;SDS011;10381;53.730;10.010;2023-04-23T22:14:41;42.80;;;33.63;;
20443;SDS011;10381;53.730;10.010;2023-04-23T22:18:41;36.53;;;32.97;;
20443;SDS011;10381;53.730;10.010;2023-04-23T22:22:42;33.37;;;29.73;;
20443;SDS011;10381;53.730;10.010;2023-04-23T22:26:42;34.42;;;30.88;;
20443;SDS011;10381;53.730;10.010;2023-04-23T22:30:42;34.00;;;28.80;;
20443;SDS011;10381;53.730;10.010;2023-04-23T22:34:44;33.00;;;29.65;;
20443;SDS011;10381;53.730;10.010;2023-04-23T22:38:44;32.35;;;28.90;;
20443;SDS011;10381;53.730;10.010;2023-04-23T22:42:44;32.10;;;28.80;;
20443;SDS011;10381;53.730;10.010;2023-04-23T22:46:45;32.37;;;29.23;;
20443;SDS011;10381;53.730;10.010;2023-04-23T22:50:45;38.25;;;28.90;;
20443;SDS011;10381;53.730;10.010;2023-04-23T22:54:46;30.38;;;27.08;;
20443;SDS011;10381;53.730;10.010;2023-04-23T22:58:47;29.60;;;26.42;;
20443;SDS011;10381;53.730;10.010;2023-04-23T23:02:47;29.50;;;26.60;;
20443;SDS011;10381;53.730;10.010;2023-04-23T23:06:47;30.97;;;27.83;;
20443;SDS011;10381;53.730;10.010;2023-04-23T23:10:48;33.05;;;29.77;;